Pagrindinis puslapis
METAR-TAF:

METAR-TAF

Oro uostai :

Žilina, Slovakija

platuma: 49-14N, ilguma: 018-36-49E, Aukštis: 312 m

Dabartinis oras

Ataskaita buvo paskelbta 38 minutes, ne 18:00 UTC
Vėjas 1 kt nuo kintamojo kryptimis
Temperatūra 10°C
Drėgmė 76%
Slėgis 1015 hPa
Matomumas 10 km arba daugiau
nėra debesų žemiau 1500 m ir nėra kamuolinių lietaus debesų

METAR: LZZI 291800Z VRB01KT CAVOK 10/06 Q1015

Laikas: 19:38 (18:38 UTC)

Prognozė

Ataskaita buvo paskelbta 1 valandą ir 23 minutes, ne 17:15 UTC
Prognozė galioja nuo 29 metu 18 UTC su 01 metu 03 UTC
Vėjas 5 kt iš Rytų/Pietryčių
Matomumas 10 km arba daugiau
Mažai debesys ne aukštis 4800 ft

TAF: LZZI 291715Z 2918/0103 12005KT 9999 FEW048

Orai ataskaitas ir orų prognozės (METAR, TAF).

turimą stotys yra geltonos ir raudonos taškus žemėlapyje.

Perkelti pele per norėdami pamatyti stoties vardą.

Tada spustelėkite, norėdami matyti oro stebėjimo ir prognozės.

Norėdami pakeisti žemėlapį: spustelėkite ant žalios mygtukų su juodo kryžiaus žemyn,; žalią mygtuką su brūkšneliu, jei norite nutolinti; arba žalių rodyklių gretimoms žemėlapius.


METAR-TAF: